Time,TemperatureF,DewpointF,PressureIn,WindDirection,WindDirectionDegrees,WindSpeedMPH,WindSpeedGustMPH,Humidity,HourlyPrecipIn,Conditions,Clouds,dailyrainin,SolarRadiationWatts/m^2,SoftwareType,DateUTC
2013-05-22 00:04:00,63.1,58.6,29.91,SSE,158,0.0,0.0,85,0.00,RA,,0.00,0.0,WeatherDisplay:10.37,2013-05-22 05:04:00,
2013-05-22 00:09:00,63.1,58.6,29.91,SSE,158,0.0,0.0,85,0.00,RA,,0.00,0.0,WeatherDisplay:10.37,2013-05-22 05:09:00,
2013-05-22 00:14:00,63.0,58.4,29.91,SSE,158,0.0,0.0,85,0.00,CLR,,0.00,0.0,WeatherDisplay:10.37,2013-05-22 05:14:00,
2013-05-22 00:20:00,63.0,58.4,29.91,SW,225,0.0,0.0,85,0.00,CLR,,0.00,0.0,WeatherDisplay:10.37,2013-05-22 05:20:00,
2013-05-22 00:25:00,62.8,58.2,29.91,SW,225,0.0,0.0,85,0.00,CLR,,0.00,0.0,WeatherDisplay:10.37,2013-05-22 05:25:00,
2013-05-22 00:30:00,62.8,58.2,29.91,South,180,0.0,0.0,85,0.00,CLR,,0.00,0.0,WeatherDisplay:10.37,2013-05-22 05:30:00,
2013-05-22 00:35:00,62.4,57.8,29.91,SSW,202,0.0,0.0,85,0.00,CLR,,0.00,0.0,WeatherDisplay:10.37,2013-05-22 05:35:00,
2013-05-22 00:40:00,62.4,57.8,29.91,WSW,248,0.0,0.0,85,0.00,CLR,,0.00,0.0,WeatherDisplay:10.37,2013-05-22 05:40:00,
2013-05-22 00:46:00,62.4,57.8,29.91,WSW,248,0.0,0.0,85,0.00,CLR,,0.00,0.0,WeatherDisplay:10.37,2013-05-22 05:46:00,
2013-05-22 00:51:00,62.4,57.8,29.90,SSW,202,0.0,0.0,85,0.00,CLR,,0.00,0.0,WeatherDisplay:10.37,2013-05-22 05:51:00,
2013-05-22 00:56:00,62.2,57.7,29.90,SSE,158,0.0,0.0,85,0.00,CLR,,0.00,0.0,WeatherDisplay:10.37,2013-05-22 05:56:00,
2013-05-22 01:01:00,62.2,57.7,29.90,ESE,112,0.0,0.0,85,0.00,CLR,,0.00,0.0,WeatherDisplay:10.37,2013-05-22 06:01:00,
2013-05-22 01:06:00,62.1,57.5,29.90,SSE,158,0.0,0.0,85,0.00,CLR,,0.00,0.0,WeatherDisplay:10.37,2013-05-22 06:06:00,
2013-05-22 01:12:00,61.9,57.3,29.90,SW,225,0.0,0.0,85,0.00,CLR,,0.00,0.0,WeatherDisplay:10.37,2013-05-22 06:12:00,
2013-05-22 01:17:00,62.1,57.5,29.90,SW,225,0.0,0.0,85,0.00,CLR,,0.00,0.0,WeatherDisplay:10.37,2013-05-22 06:17:00,
2013-05-22 01:22:00,61.7,57.1,29.90,SW,225,0.0,0.0,85,0.00,CLR,,0.00,0.0,WeatherDisplay:10.37,2013-05-22 06:22:00,
2013-05-22 01:27:00,61.5,57.0,29.90,SW,225,0.0,0.0,85,0.00,CLR,,0.00,0.0,WeatherDisplay:10.37,2013-05-22 06:27:00,
2013-05-22 01:32:00,61.5,57.0,29.90,WSW,248,0.0,0.0,85,0.00,CLR,,0.00,0.0,WeatherDisplay:10.37,2013-05-22 06:32:00,
2013-05-22 01:37:00,61.5,57.0,29.90,SW,225,0.0,0.0,85,0.00,CLR,,0.00,0.0,WeatherDisplay:10.37,2013-05-22 06:37:00,
2013-05-22 01:42:00,61.5,57.0,29.90,SW,225,0.0,0.0,85,0.00,CLR,,0.00,0.0,WeatherDisplay:10.37,2013-05-22 06:42:00,
2013-05-22 01:48:00,61.3,56.8,29.90,SW,225,0.0,0.0,85,0.00,CLR,,0.00,0.0,WeatherDisplay:10.37,2013-05-22 06:48:00,
2013-05-22 01:53:00,61.2,56.6,29.89,SW,225,0.0,0.0,85,0.00,CLR,,0.00,0.0,WeatherDisplay:10.37,2013-05-22 06:53:00,
2013-05-22 01:58:00,61.3,56.8,29.89,SW,225,0.0,0.0,85,0.00,CLR,,0.00,0.0,WeatherDisplay:10.37,2013-05-22 06:58:00,
2013-05-22 02:03:00,61.0,56.4,29.89,SW,225,0.0,0.0,85,0.00,CLR,,0.00,0.0,WeatherDisplay:10.37,2013-05-22 07:03:00,
2013-05-22 02:08:00,61.0,56.4,29.89,South,180,0.0,0.0,85,0.00,CLR,,0.00,0.0,WeatherDisplay:10.37,2013-05-22 07:08:00,
2013-05-22 02:13:00,61.0,56.4,29.88,SW,225,0.0,0.0,85,0.00,CLR,,0.00,0.0,WeatherDisplay:10.37,2013-05-22 07:13:00,
2013-05-22 02:19:00,61.0,56.4,29.88,South,180,0.0,0.0,85,0.00,CLR,,0.00,0.0,WeatherDisplay:10.37,2013-05-22 07:19:00,
2013-05-22 02:24:00,60.8,56.3,29.88,SW,225,0.0,0.0,85,0.00,CLR,,0.00,0.0,WeatherDisplay:10.37,2013-05-22 07:24:00,
2013-05-22 02:29:00,60.8,56.3,29.88,SW,225,0.0,0.0,85,0.00,CLR,,0.00,0.0,WeatherDisplay:10.37,2013-05-22 07:29:00,
2013-05-22 02:34:00,60.8,56.6,29.88,SSE,158,0.0,0.0,86,0.00,CLR,,0.00,0.0,WeatherDisplay:10.37,2013-05-22 07:34:00,
2013-05-22 02:39:00,60.8,56.3,29.88,SSE,158,0.0,0.0,85,0.00,CLR,,0.00,0.0,WeatherDisplay:10.37,2013-05-22 07:39:00,
2013-05-22 02:45:00,60.8,56.3,29.88,SE,135,0.0,0.0,85,0.00,CLR,,0.00,0.0,WeatherDisplay:10.37,2013-05-22 07:45:00,
2013-05-22 02:50:00,60.6,56.1,29.88,ESE,112,0.0,0.0,85,0.00,CLR,,0.00,0.0,WeatherDisplay:10.37,2013-05-22 07:50:00,
2013-05-22 02:55:00,60.6,56.1,29.88,South,180,0.0,0.0,85,0.00,CLR,,0.00,0.0,WeatherDisplay:10.37,2013-05-22 07:55:00,
2013-05-22 03:00:00,60.4,55.9,29.88,South,180,0.0,0.0,85,0.00,CLR,,0.00,0.0,WeatherDisplay:10.37,2013-05-22 08:00:00,
2013-05-22 03:05:00,60.4,55.9,29.88,SW,225,0.0,0.0,85,0.00,CLR,,0.00,0.0,WeatherDisplay:10.37,2013-05-22 08:05:00,
2013-05-22 03:10:00,60.4,55.9,29.88,SW,225,0.0,0.0,85,0.00,CLR,,0.00,0.0,WeatherDisplay:10.37,2013-05-22 08:10:00,
2013-05-22 03:15:00,59.9,55.7,29.88,WSW,248,0.0,0.0,86,0.00,CLR,,0.00,0.0,WeatherDisplay:10.37,2013-05-22 08:15:00,
2013-05-22 03:21:00,59.9,55.7,29.88,SW,225,0.0,0.0,86,0.00,CLR,,0.00,0.0,WeatherDisplay:10.37,2013-05-22 08:21:00,
2013-05-22 03:26:00,59.7,55.5,29.88,South,180,0.0,0.0,86,0.00,CLR,,0.00,0.0,WeatherDisplay:10.37,2013-05-22 08:26:00,
2013-05-22 03:31:00,59.7,55.5,29.87,SW,225,0.0,0.0,86,0.00,CLR,,0.00,0.0,WeatherDisplay:10.37,2013-05-22 08:31:00,
2013-05-22 03:36:00,59.7,55.5,29.87,SW,225,0.0,0.0,86,0.00,CLR,,0.00,0.0,WeatherDisplay:10.37,2013-05-22 08:36:00,
2013-05-22 03:41:00,59.7,55.5,29.87,South,180,0.0,0.0,86,0.00,CLR,,0.00,0.0,WeatherDisplay:10.37,2013-05-22 08:41:00,
2013-05-22 03:46:00,59.7,55.5,29.87,ESE,112,0.0,0.0,86,0.00,CLR,,0.00,0.0,WeatherDisplay:10.37,2013-05-22 08:46:00,
2013-05-22 03:52:00,59.9,55.7,29.87,SE,135,0.0,0.0,86,0.00,CLR,,0.00,0.0,WeatherDisplay:10.37,2013-05-22 08:52:00,
2013-05-22 03:57:00,59.9,55.7,29.87,WSW,248,0.0,0.0,86,0.00,CLR,,0.00,0.0,WeatherDisplay:10.37,2013-05-22 08:57:00,
2013-05-22 04:02:00,59.5,55.3,29.87,WNW,292,0.0,0.0,86,0.00,CLR,,0.00,0.0,WeatherDisplay:10.37,2013-05-22 09:02:00,
2013-05-22 04:07:00,59.5,55.3,29.87,West,270,0.0,0.0,86,0.00,CLR,,0.00,0.0,WeatherDisplay:10.37,2013-05-22 09:07:00,
2013-05-22 04:12:00,59.4,55.2,29.87,NNW,338,0.0,0.0,86,0.00,CLR,,0.00,0.0,WeatherDisplay:10.37,2013-05-22 09:12:00,
2013-05-22 04:17:00,59.4,55.5,29.87,WNW,292,0.0,0.0,87,0.00,CLR,,0.00,0.0,WeatherDisplay:10.37,2013-05-22 09:17:00,
2013-05-22 04:23:00,59.4,55.5,29.87,West,270,0.0,0.0,87,0.00,CLR,,0.00,0.0,WeatherDisplay:10.37,2013-05-22 09:23:00,
2013-05-22 04:28:00,59.4,55.5,29.87,NW,315,0.0,0.0,87,0.00,CLR,,0.00,0.0,WeatherDisplay:10.37,2013-05-22 09:28:00,
2013-05-22 04:33:00,59.2,55.3,29.88,SW,225,0.0,0.0,87,0.00,CLR,,0.00,0.0,WeatherDisplay:10.37,2013-05-22 09:33:00,
2013-05-22 04:38:00,59.0,55.1,29.88,WSW,248,0.0,0.0,87,0.00,CLR,,0.00,0.0,WeatherDisplay:10.37,2013-05-22 09:38:00,
2013-05-22 04:43:00,59.0,55.1,29.88,SSE,158,0.0,0.0,87,0.00,CLR,,0.00,0.0,WeatherDisplay:10.37,2013-05-22 09:43:00,
2013-05-22 04:49:00,59.2,55.3,29.88,SE,135,0.0,0.0,87,0.00,CLR,,0.00,0.0,WeatherDisplay:10.37,2013-05-22 09:49:00,
2013-05-22 04:54:00,59.2,55.3,29.89,ESE,112,0.0,0.0,87,0.00,CLR,,0.00,0.0,WeatherDisplay:10.37,2013-05-22 09:54:00,
2013-05-22 04:59:00,59.2,55.3,29.89,ESE,112,0.0,0.0,87,0.00,CLR,,0.00,0.0,WeatherDisplay:10.37,2013-05-22 09:59:00,
2013-05-22 05:04:00,59.2,55.3,29.89,SE,135,0.0,0.0,87,0.00,CLR,,0.00,0.0,WeatherDisplay:10.37,2013-05-22 10:04:00,
2013-05-22 05:09:00,59.2,55.3,29.89,SE,135,0.0,0.0,87,0.00,CLR,,0.00,0.0,WeatherDisplay:10.37,2013-05-22 10:09:00,
2013-05-22 05:15:00,59.2,55.3,29.88,SE,135,2.3,2.3,87,0.00,CLR,,0.00,0.0,WeatherDisplay:10.37,2013-05-22 10:15:00,
2013-05-22 05:20:00,59.4,55.5,29.88,SE,135,2.3,2.3,87,0.00,CLR,,0.00,0.0,WeatherDisplay:10.37,2013-05-22 10:20:00,
2013-05-22 05:25:00,59.4,55.5,29.88,ESE,112,0.0,1.0,87,0.00,CLR,,0.00,0.0,WeatherDisplay:10.37,2013-05-22 10:25:00,
2013-05-22 05:30:00,59.2,55.3,29.88,ENE,68,0.0,0.2,87,0.00,CLR,,0.00,0.0,WeatherDisplay:10.37,2013-05-22 10:30:00,
2013-05-22 05:35:00,59.0,55.1,29.88,ESE,112,0.0,0.0,87,0.00,CLR,,0.00,0.0,WeatherDisplay:10.37,2013-05-22 10:35:00,
2013-05-22 05:40:00,59.2,55.3,29.88,ESE,112,0.0,0.0,87,0.00,CLR,,0.00,0.0,WeatherDisplay:10.37,2013-05-22 10:40:00,
2013-05-22 05:46:00,59.2,55.3,29.88,ESE,112,0.0,0.0,87,0.00,CLR,,0.00,0.0,WeatherDisplay:10.37,2013-05-22 10:46:00,
2013-05-22 05:51:00,59.0,55.1,29.88,ESE,112,0.0,0.0,87,0.00,CLR,,0.00,0.0,WeatherDisplay:10.37,2013-05-22 10:51:00,
2013-05-22 05:56:00,59.0,55.1,29.88,ESE,112,1.5,1.5,87,0.00,CLR,,0.00,0.0,WeatherDisplay:10.37,2013-05-22 10:56:00,
2013-05-22 06:01:00,59.2,55.3,29.88,ESE,112,1.2,1.2,87,0.00,OVC,,0.00,0.0,WeatherDisplay:10.37,2013-05-22 11:01:00,
2013-05-22 06:07:00,59.2,55.3,29.88,ESE,112,1.2,1.2,87,0.00,OVC,,0.00,0.0,WeatherDisplay:10.37,2013-05-22 11:07:00,
2013-05-22 06:12:00,59.4,55.5,29.89,East,90,2.3,2.3,87,0.00,OVC,,0.00,0.0,WeatherDisplay:10.37,2013-05-22 11:12:00,
2013-05-22 06:17:00,59.4,55.5,29.89,ESE,112,1.2,1.7,87,0.00,OVC,,0.00,0.0,WeatherDisplay:10.37,2013-05-22 11:17:00,
2013-05-22 06:22:00,59.4,55.5,29.89,SE,135,2.3,2.3,87,0.00,OVC,,0.00,0.0,WeatherDisplay:10.37,2013-05-22 11:22:00,
2013-05-22 06:27:00,59.4,55.5,29.89,ESE,112,1.2,1.7,87,0.00,OVC,,0.00,0.0,WeatherDisplay:10.37,2013-05-22 11:27:00,
2013-05-22 06:32:00,59.4,55.8,29.90,SE,135,2.3,2.3,88,0.00,OVC,,0.00,0.0,WeatherDisplay:10.37,2013-05-22 11:32:00,
2013-05-22 06:37:00,59.5,55.7,29.90,SE,135,0.0,0.6,87,0.00,OVC,,0.00,0.0,WeatherDisplay:10.37,2013-05-22 11:37:00,
2013-05-22 06:43:00,59.5,56.0,29.90,ESE,112,1.2,1.2,88,0.00,OVC,,0.00,0.0,WeatherDisplay:10.37,2013-05-22 11:43:00,
2013-05-22 06:48:00,59.4,55.8,29.90,ESE,112,2.3,2.3,88,0.00,OVC,,0.00,0.0,WeatherDisplay:10.37,2013-05-22 11:48:00,
2013-05-22 06:53:00,59.4,55.5,29.90,SE,135,2.3,2.3,87,0.00,OVC,,0.00,0.0,WeatherDisplay:10.37,2013-05-22 11:53:00,
2013-05-22 06:58:00,59.4,55.5,29.90,SE,135,2.3,2.3,87,0.00,OVC,,0.00,0.0,WeatherDisplay:10.37,2013-05-22 11:58:00,
2013-05-22 07:03:00,59.4,55.5,29.90,ESE,112,3.5,3.5,87,0.00,OVC,,0.00,0.0,WeatherDisplay:10.37,2013-05-22 12:03:00,
2013-05-22 07:08:00,59.7,56.2,29.90,ESE,112,3.5,3.5,88,0.00,OVC,,0.00,0.0,WeatherDisplay:10.37,2013-05-22 12:08:00,
2013-05-22 07:13:00,59.7,56.2,29.91,ESE,112,2.1,2.1,88,0.00,OVC,,0.00,0.0,WeatherDisplay:10.37,2013-05-22 12:13:00,
2013-05-22 07:18:00,59.7,56.2,29.91,East,90,2.3,2.3,88,0.00,OVC,,0.00,0.0,WeatherDisplay:10.37,2013-05-22 12:18:00,
2013-05-22 07:24:00,60.1,56.5,29.91,ESE,112,1.2,1.4,88,0.00,OVC,,0.00,0.0,WeatherDisplay:10.37,2013-05-22 12:24:00,
2013-05-22 07:29:00,60.1,56.5,29.91,SE,135,2.3,2.3,88,0.00,OVC,,0.00,0.0,WeatherDisplay:10.37,2013-05-22 12:29:00,
2013-05-22 07:34:00,60.6,57.0,29.91,ESE,112,2.4,2.4,88,0.00,OVC,,0.00,0.0,WeatherDisplay:10.37,2013-05-22 12:34:00,
2013-05-22 07:39:00,60.8,57.5,29.91,SSE,158,0.0,1.4,89,0.00,OVC,,0.00,0.0,WeatherDisplay:10.37,2013-05-22 12:39:00,
2013-05-22 07:45:00,61.0,57.7,29.91,SE,135,2.3,2.3,89,0.00,OVC,,0.00,0.0,WeatherDisplay:10.37,2013-05-22 12:45:00,
2013-05-22 07:50:00,61.3,58.1,29.93,SE,135,2.3,2.3,89,0.00,OVC,,0.00,0.0,WeatherDisplay:10.37,2013-05-22 12:50:00,
2013-05-22 07:55:00,61.7,58.4,29.93,North,0,0.0,1.6,89,0.00,OVC,,0.00,0.0,WeatherDisplay:10.37,2013-05-22 12:55:00,
2013-05-22 08:00:00,61.9,58.6,29.93,ESE,112,1.2,1.2,89,0.00,OVC,,0.00,0.0,WeatherDisplay:10.37,2013-05-22 13:00:00,
2013-05-22 08:05:00,62.1,58.8,29.93,SSE,158,2.3,2.3,89,0.00,OVC,,0.00,0.0,WeatherDisplay:10.37,2013-05-22 13:05:00,
2013-05-22 08:10:00,62.2,58.6,29.95,SSE,158,2.3,2.3,88,0.00,OVC,,0.00,0.0,WeatherDisplay:10.37,2013-05-22 13:10:00,
2013-05-22 08:15:00,62.6,59.0,29.95,SE,135,2.3,2.3,88,0.00,OVC,,0.00,0.0,WeatherDisplay:10.37,2013-05-22 13:15:00,
2013-05-22 08:21:00,63.1,59.5,29.95,SE,135,4.8,4.8,88,0.00,OVC,,0.00,0.0,WeatherDisplay:10.37,2013-05-22 13:21:00,
2013-05-22 08:26:00,63.3,59.7,29.95,East,90,2.3,2.3,88,0.00,OVC,,0.00,0.0,WeatherDisplay:10.37,2013-05-22 13:26:00,
2013-05-22 08:31:00,63.3,59.7,29.95,SE,135,3.5,3.5,88,0.00,OVC,,0.00,0.0,WeatherDisplay:10.37,2013-05-22 13:31:00,
2013-05-22 08:36:00,63.7,59.7,29.95,SE,135,3.5,3.5,87,0.00,OVC,,0.00,0.0,WeatherDisplay:10.37,2013-05-22 13:36:00,
2013-05-22 08:41:00,64.0,60.1,29.95,SE,135,1.2,2.5,87,0.00,OVC,,0.00,0.0,WeatherDisplay:10.37,2013-05-22 13:41:00,
2013-05-22 08:46:00,64.2,60.3,29.95,SE,135,2.3,2.3,87,0.00,OVC,,0.00,0.0,WeatherDisplay:10.37,2013-05-22 13:46:00,
2013-05-22 08:52:00,64.6,60.6,29.96,ESE,112,2.6,2.6,87,0.00,OVC,,0.00,0.0,WeatherDisplay:10.37,2013-05-22 13:52:00,
2013-05-22 08:57:00,64.4,60.4,29.96,ESE,112,0.0,1.2,87,0.00,OVC,,0.00,0.0,WeatherDisplay:10.37,2013-05-22 13:57:00,
2013-05-22 09:02:00,64.6,60.6,29.96,SSE,158,1.2,1.2,87,0.00,OVC,,0.00,0.0,WeatherDisplay:10.37,2013-05-22 14:02:00,
2013-05-22 09:07:00,64.9,61.0,29.96,SSW,202,1.2,1.2,87,0.00,OVC,,0.00,0.0,WeatherDisplay:10.37,2013-05-22 14:07:00,
2013-05-22 09:12:00,64.9,60.6,29.98,East,90,2.3,2.3,86,0.00,OVC,,0.00,0.0,WeatherDisplay:10.37,2013-05-22 14:12:00,
2013-05-22 09:17:00,65.3,61.0,29.98,ESE,112,3.5,3.5,86,0.00,OVC,,0.00,0.0,WeatherDisplay:10.37,2013-05-22 14:17:00,
2013-05-22 09:22:00,65.7,61.4,29.98,SE,135,1.2,1.2,86,0.00,OVC,,0.00,0.0,WeatherDisplay:10.37,2013-05-22 14:22:00,
2013-05-22 09:27:00,65.7,61.4,29.98,SSE,158,0.0,0.6,86,0.00,OVC,,0.00,0.0,WeatherDisplay:10.37,2013-05-22 14:27:00,
2013-05-22 09:33:00,65.8,61.5,29.99,SE,135,0.0,0.2,86,0.00,OVC,,0.00,0.0,WeatherDisplay:10.37,2013-05-22 14:33:00,
2013-05-22 09:38:00,65.8,61.5,29.99,South,180,0.0,0.2,86,0.00,OVC,,0.00,0.0,WeatherDisplay:10.37,2013-05-22 14:38:00,
2013-05-22 09:43:00,66.2,61.6,29.99,ESE,112,0.0,0.2,85,0.00,OVC,,0.00,0.0,WeatherDisplay:10.37,2013-05-22 14:43:00,
2013-05-22 09:48:00,66.4,61.7,29.99,SW,225,0.0,0.2,85,0.00,OVC,,0.00,0.0,WeatherDisplay:10.37,2013-05-22 14:48:00,
2013-05-22 09:53:00,66.6,61.9,29.99,SW,225,0.0,0.2,85,0.00,OVC,,0.00,0.0,WeatherDisplay:10.37,2013-05-22 14:53:00,
2013-05-22 09:58:00,66.7,62.1,29.99,West,270,0.0,0.1,85,0.00,OVC,,0.00,0.0,WeatherDisplay:10.37,2013-05-22 14:58:00,
2013-05-22 10:03:00,66.7,61.7,29.99,West,270,0.0,0.0,84,0.00,OVC,,0.00,0.0,WeatherDisplay:10.37,2013-05-22 15:03:00,
2013-05-22 10:09:00,67.1,61.8,29.99,East,90,0.0,0.0,83,0.00,OVC,,0.00,0.0,WeatherDisplay:10.37,2013-05-22 15:09:00,
2013-05-22 10:14:00,67.1,62.1,29.99,WSW,248,0.0,0.0,84,0.00,OVC,,0.00,0.0,WeatherDisplay:10.37,2013-05-22 15:14:00,
2013-05-22 10:19:00,67.3,62.3,29.99,WSW,248,0.0,0.0,84,0.00,OVC,,0.00,0.0,WeatherDisplay:10.37,2013-05-22 15:19:00,
2013-05-22 10:24:00,67.5,62.1,29.99,ESE,112,2.6,2.6,83,0.00,OVC,,0.00,0.0,WeatherDisplay:10.37,2013-05-22 15:24:00,
2013-05-22 10:30:00,68.2,62.8,30.00,South,180,2.3,2.3,83,0.00,OVC,,0.00,0.0,WeatherDisplay:10.37,2013-05-22 15:30:00,
2013-05-22 10:35:00,68.5,62.8,30.00,SSE,158,2.6,2.6,82,0.00,OVC,,0.00,0.0,WeatherDisplay:10.37,2013-05-22 15:35:00,
2013-05-22 10:40:00,68.7,63.0,30.00,SE,135,2.3,2.3,82,0.00,OVC,,0.00,0.0,WeatherDisplay:10.37,2013-05-22 15:40:00,
2013-05-22 10:45:00,69.3,63.5,30.00,South,180,1.2,1.2,82,0.00,OVC,,0.00,0.0,WeatherDisplay:10.37,2013-05-22 15:45:00,
2013-05-22 10:51:00,69.4,63.0,30.00,SW,225,0.0,0.3,80,0.00,OVC,,0.00,0.0,WeatherDisplay:10.37,2013-05-22 15:51:00,
2013-05-22 10:56:00,69.6,62.8,30.00,NW,315,0.0,0.1,79,0.00,OVC,,0.00,0.0,WeatherDisplay:10.37,2013-05-22 15:56:00,
2013-05-22 11:01:00,69.6,62.8,30.00,NNW,338,0.0,0.1,79,0.00,OVC,,0.00,0.0,WeatherDisplay:10.37,2013-05-22 16:01:00,
2013-05-22 11:06:00,70.0,63.5,30.00,SE,135,2.3,2.3,80,0.00,OVC,,0.00,0.0,WeatherDisplay:10.37,2013-05-22 16:06:00,
2013-05-22 11:11:00,70.0,63.9,30.00,ESE,112,3.5,3.5,81,0.00,OVC,,0.00,0.0,WeatherDisplay:10.37,2013-05-22 16:11:00,
2013-05-22 11:17:00,70.5,64.4,30.00,East,90,1.2,1.5,81,0.00,OVC,,0.00,0.0,WeatherDisplay:10.37,2013-05-22 16:17:00,
2013-05-22 11:22:00,70.9,64.0,30.00,ENE,68,2.3,2.3,79,0.00,OVC,,0.00,0.0,WeatherDisplay:10.37,2013-05-22 16:22:00,
2013-05-22 11:27:00,71.2,64.4,30.00,East,90,1.2,1.2,79,0.00,OVC,,0.00,0.0,WeatherDisplay:10.37,2013-05-22 16:27:00,
2013-05-22 11:32:00,71.4,64.2,30.00,NW,315,0.0,0.7,78,0.00,OVC,,0.00,0.0,WeatherDisplay:10.37,2013-05-22 16:32:00,
2013-05-22 11:37:00,71.8,64.2,30.00,SSE,158,1.8,1.8,77,0.00,OVC,,0.00,0.0,WeatherDisplay:10.37,2013-05-22 16:37:00,
2013-05-22 11:42:00,72.1,64.5,30.00,SE,135,2.3,2.3,77,0.00,OVC,,0.00,0.0,WeatherDisplay:10.37,2013-05-22 16:42:00,
2013-05-22 11:48:00,72.3,63.6,30.00,SE,135,0.0,0.6,74,0.00,OVC,,0.00,0.0,WeatherDisplay:10.37,2013-05-22 16:48:00,
2013-05-22 11:53:00,72.5,63.7,30.00,NNE,22,1.2,1.2,74,0.00,OVC,,0.00,0.0,WeatherDisplay:10.37,2013-05-22 16:53:00,
2013-05-22 11:58:00,72.9,64.1,30.00,ESE,112,2.3,2.3,74,0.00,OVC,,0.00,0.0,WeatherDisplay:10.37,2013-05-22 16:58:00,
2013-05-22 12:03:00,72.9,64.1,30.00,SE,135,1.2,1.4,74,0.00,OVC,,0.00,0.0,WeatherDisplay:10.37,2013-05-22 17:03:00,
2013-05-22 12:08:00,72.9,64.1,30.00,SE,135,1.2,1.4,74,0.00,OVC,,0.00,0.0,WeatherDisplay:10.37,2013-05-22 17:08:00,
2013-05-22 12:13:00,73.9,63.9,29.99,SSE,158,2.3,2.3,71,0.00,OVC,,0.00,0.0,WeatherDisplay:10.37,2013-05-22 17:13:00,
2013-05-22 12:18:00,74.3,63.9,29.99,ESE,112,1.2,1.3,70,0.00,OVC,,0.00,0.0,WeatherDisplay:10.37,2013-05-22 17:18:00,
2013-05-22 12:23:00,74.3,63.5,29.99,NNE,22,2.3,2.3,69,0.00,OVC,,0.00,0.0,WeatherDisplay:10.37,2013-05-22 17:23:00,
2013-05-22 12:29:00,75.0,63.3,29.99,East,90,2.3,2.3,67,0.00,OVC,,0.00,0.0,WeatherDisplay:10.37,2013-05-22 17:29:00,
2013-05-22 12:34:00,75.0,62.9,29.99,ESE,112,3.5,3.5,66,0.00,OVC,,0.00,0.0,WeatherDisplay:10.37,2013-05-22 17:34:00,
2013-05-22 12:39:00,75.2,63.1,29.99,ENE,68,2.3,2.3,66,0.00,OVC,,0.00,0.0,WeatherDisplay:10.37,2013-05-22 17:39:00,
2013-05-22 12:44:00,75.7,63.6,29.99,ENE,68,3.5,3.5,66,0.00,OVC,,0.00,0.0,WeatherDisplay:10.37,2013-05-22 17:44:00,
2013-05-22 12:49:00,75.9,63.3,29.99,ESE,112,4.7,4.7,65,0.00,OVC,,0.00,0.0,WeatherDisplay:10.37,2013-05-22 17:49:00,
2013-05-22 12:54:00,75.9,62.4,29.98,ENE,68,3.5,3.5,63,0.00,OVC,,0.00,0.0,WeatherDisplay:10.37,2013-05-22 17:54:00,
2013-05-22 13:00:00,76.3,61.4,29.98,NE,45,3.5,3.5,60,0.00,OVC,,0.00,0.0,WeatherDisplay:10.37,2013-05-22 18:00:00,
2013-05-22 13:05:00,76.6,62.2,29.98,NNE,22,0.0,2.0,61,0.00,OVC,,0.00,0.0,WeatherDisplay:10.37,2013-05-22 18:05:00,
2013-05-22 13:10:00,77.0,62.0,29.98,NE,45,2.3,2.3,60,0.00,OVC,,0.00,0.0,WeatherDisplay:10.37,2013-05-22 18:10:00,
2013-05-22 13:15:00,77.2,61.7,29.98,NE,45,2.3,2.3,59,0.00,OVC,,0.00,0.0,WeatherDisplay:10.37,2013-05-22 18:15:00,
2013-05-22 13:20:00,77.5,63.0,29.98,ESE,112,4.6,4.6,61,0.00,OVC,,0.00,0.0,WeatherDisplay:10.37,2013-05-22 18:20:00,
2013-05-22 13:25:00,77.7,62.2,29.98,ESE,112,3.5,3.5,59,0.00,OVC,,0.00,0.0,WeatherDisplay:10.37,2013-05-22 18:25:00,
2013-05-22 13:31:00,78.1,61.6,29.98,SE,135,4.6,4.6,57,0.00,OVC,,0.00,0.0,WeatherDisplay:10.37,2013-05-22 18:31:00,
2013-05-22 13:36:00,78.1,61.1,29.98,SE,135,4.6,4.6,56,0.00,OVC,,0.00,0.0,WeatherDisplay:10.37,2013-05-22 18:36:00,
2013-05-22 13:41:00,78.3,60.2,29.98,SSE,158,1.6,2.8,54,0.00,OVC,,0.00,0.0,WeatherDisplay:10.37,2013-05-22 18:41:00,
2013-05-22 13:46:00,78.4,59.9,29.98,East,90,3.5,3.5,53,0.00,OVC,,0.00,0.0,WeatherDisplay:10.37,2013-05-22 18:46:00,
2013-05-22 13:51:00,78.6,59.0,29.98,West,270,2.3,2.3,51,0.00,OVC,,0.00,0.0,WeatherDisplay:10.37,2013-05-22 18:51:00,
2013-05-22 13:56:00,78.8,56.9,29.98,East,90,5.8,5.8,47,0.00,OVC,,0.00,0.0,WeatherDisplay:10.37,2013-05-22 18:56:00,
2013-05-22 14:02:00,79.2,58.4,29.98,South,180,2.3,2.8,49,0.00,OVC,,0.00,0.0,WeatherDisplay:10.37,2013-05-22 19:02:00,
2013-05-22 14:07:00,79.2,58.9,29.98,ENE,68,1.2,1.7,50,0.00,OVC,,0.00,0.0,WeatherDisplay:10.37,2013-05-22 19:07:00,
2013-05-22 14:12:00,79.5,59.8,29.98,East,90,4.6,4.6,51,0.00,OVC,,0.00,0.0,WeatherDisplay:10.37,2013-05-22 19:12:00,
2013-05-22 14:17:00,79.7,60.5,29.98,NW,315,0.0,2.2,52,0.00,OVC,,0.00,0.0,WeatherDisplay:10.37,2013-05-22 19:17:00,
2013-05-22 14:22:00,80.1,59.7,29.98,SSE,158,2.3,2.3,50,0.00,OVC,,0.00,0.0,WeatherDisplay:10.37,2013-05-22 19:22:00,
2013-05-22 14:27:00,80.4,61.2,29.98,SSE,158,3.5,3.5,52,0.00,OVC,,0.00,0.0,WeatherDisplay:10.37,2013-05-22 19:27:00,
2013-05-22 14:33:00,80.4,60.1,29.97,South,180,4.6,4.6,50,0.00,OVC,,0.00,0.0,WeatherDisplay:10.37,2013-05-22 19:33:00,
2013-05-22 14:38:00,80.6,61.9,29.97,SE,135,3.9,3.9,53,0.00,OVC,,0.00,0.0,WeatherDisplay:10.37,2013-05-22 19:38:00,
2013-05-22 14:43:00,80.8,61.0,29.97,ESE,112,3.5,3.5,51,0.00,OVC,,0.00,0.0,WeatherDisplay:10.37,2013-05-22 19:43:00,
2013-05-22 14:48:00,81.0,61.1,29.97,ESE,112,0.0,1.6,51,0.00,OVC,,0.00,0.0,WeatherDisplay:10.37,2013-05-22 19:48:00,
2013-05-22 14:53:00,81.1,61.3,29.97,SSE,158,0.0,0.3,51,0.00,OVC,,0.00,0.0,WeatherDisplay:10.37,2013-05-22 19:53:00,
2013-05-22 14:58:00,81.1,62.4,29.97,East,90,3.5,3.5,53,0.00,OVC,,0.00,0.0,WeatherDisplay:10.37,2013-05-22 19:58:00,
2013-05-22 15:03:00,81.1,59.6,29.97,West,270,0.0,1.2,48,0.00,OVC,,0.00,0.0,WeatherDisplay:10.37,2013-05-22 20:03:00,
2013-05-22 15:09:00,81.7,59.5,29.97,SSW,202,0.0,1.2,47,0.00,OVC,,0.00,0.0,WeatherDisplay:10.37,2013-05-22 20:09:00,
2013-05-22 15:14:00,81.7,59.5,29.95,SE,135,2.3,2.3,47,0.00,OVC,,0.00,0.0,WeatherDisplay:10.37,2013-05-22 20:14:00,
2013-05-22 15:19:00,81.7,60.1,29.95,ENE,68,4.6,4.6,48,0.00,OVC,,0.00,0.0,WeatherDisplay:10.37,2013-05-22 20:19:00,
2013-05-22 15:24:00,82.2,60.0,29.95,ESE,112,4.6,4.6,47,0.00,OVC,,0.00,0.0,WeatherDisplay:10.37,2013-05-22 20:24:00,
2013-05-22 15:29:00,82.4,60.1,29.95,SE,135,0.0,3.1,47,0.00,OVC,,0.00,0.0,WeatherDisplay:10.37,2013-05-22 20:29:00,
2013-05-22 15:34:00,82.6,60.3,29.94,ESE,112,5.8,5.8,47,0.00,OVC,,0.00,0.0,WeatherDisplay:10.37,2013-05-22 20:34:00,
2013-05-22 15:40:00,82.8,59.9,29.94,ESE,112,4.6,4.6,46,0.00,OVC,,0.00,0.0,WeatherDisplay:10.37,2013-05-22 20:40:00,
2013-05-22 15:45:00,82.9,60.0,29.94,ESE,112,6.9,6.9,46,0.00,OVC,,0.00,0.0,WeatherDisplay:10.37,2013-05-22 20:45:00,
2013-05-22 15:50:00,83.3,60.4,29.94,South,180,5.8,5.8,46,0.00,OVC,,0.00,0.0,WeatherDisplay:10.37,2013-05-22 20:50:00,
2013-05-22 15:55:00,83.5,59.3,29.94,ESE,112,4.9,4.9,44,0.00,OVC,,0.00,0.0,WeatherDisplay:10.37,2013-05-22 20:55:00,
2013-05-22 16:00:00,83.5,58.6,29.94,East,90,4.6,4.6,43,0.00,OVC,,0.00,0.0,WeatherDisplay:10.37,2013-05-22 21:00:00,
2013-05-22 16:05:00,83.8,59.0,29.94,ESE,112,1.2,2.4,43,0.00,OVC,,0.00,0.0,WeatherDisplay:10.37,2013-05-22 21:05:00,
2013-05-22 16:11:00,84.0,59.8,29.93,SSE,158,2.3,2.3,44,0.00,OVC,,0.00,0.0,WeatherDisplay:10.37,2013-05-22 21:11:00,
2013-05-22 16:16:00,83.8,59.0,29.93,SE,135,0.0,1.5,43,0.00,OVC,,0.00,0.0,WeatherDisplay:10.37,2013-05-22 21:16:00,
2013-05-22 16:21:00,84.0,59.8,29.93,ESE,112,4.6,4.6,44,0.00,OVC,,0.00,0.0,WeatherDisplay:10.37,2013-05-22 21:21:00,
2013-05-22 16:26:00,84.0,59.1,29.93,SSE,158,4.6,4.6,43,0.00,OVC,,0.00,0.0,WeatherDisplay:10.37,2013-05-22 21:26:00,
2013-05-22 16:31:00,84.0,59.8,29.93,SE,135,2.3,2.3,44,0.00,OVC,,0.00,0.0,WeatherDisplay:10.37,2013-05-22 21:31:00,
2013-05-22 16:37:00,84.2,59.3,29.93,ESE,112,5.8,5.8,43,0.00,OVC,,0.00,0.0,WeatherDisplay:10.37,2013-05-22 21:37:00,
2013-05-22 16:42:00,84.4,59.4,29.93,SE,135,4.6,4.6,43,0.00,OVC,,0.00,0.0,WeatherDisplay:10.37,2013-05-22 21:42:00,
2013-05-22 16:47:00,84.2,59.3,29.93,SE,135,4.6,4.6,43,0.00,OVC,,0.00,0.0,WeatherDisplay:10.37,2013-05-22 21:47:00,
2013-05-22 16:52:00,84.7,59.8,29.91,SSE,158,2.3,2.3,43,0.00,OVC,,0.00,0.0,WeatherDisplay:10.37,2013-05-22 21:52:00,
2013-05-22 16:57:00,84.7,59.1,29.91,ESE,112,4.6,4.6,42,0.00,OVC,,0.00,0.0,WeatherDisplay:10.37,2013-05-22 21:57:00,
2013-05-22 17:03:00,84.7,58.4,29.91,SE,135,1.2,2.2,41,0.00,OVC,,0.00,0.0,WeatherDisplay:10.37,2013-05-22 22:03:00,
2013-05-22 17:08:00,84.9,59.3,29.91,SE,135,2.3,2.3,42,0.00,OVC,,0.00,0.0,WeatherDisplay:10.37,2013-05-22 22:08:00,
2013-05-22 17:13:00,85.1,59.4,29.90,ESE,112,4.6,4.6,42,0.00,OVC,,0.00,0.0,WeatherDisplay:10.37,2013-05-22 22:13:00,
2013-05-22 17:18:00,85.1,58.1,29.90,ENE,68,5.8,5.8,40,0.00,OVC,,0.00,0.0,WeatherDisplay:10.37,2013-05-22 22:18:00,
2013-05-22 17:23:00,85.1,58.1,29.90,ESE,112,4.6,4.6,40,0.00,OVC,,0.00,0.0,WeatherDisplay:10.37,2013-05-22 22:23:00,
2013-05-22 17:28:00,85.1,58.1,29.90,East,90,2.3,3.2,40,0.00,OVC,,0.00,0.0,WeatherDisplay:10.37,2013-05-22 22:28:00,
2013-05-22 17:33:00,85.3,59.6,29.89,ESE,112,3.5,3.5,42,0.00,OVC,,0.00,0.0,WeatherDisplay:10.37,2013-05-22 22:33:00,
2013-05-22 17:39:00,85.3,58.9,29.89,SE,135,4.6,4.6,41,0.00,OVC,,0.00,0.0,WeatherDisplay:10.37,2013-05-22 22:39:00,
2013-05-22 17:44:00,85.5,59.1,29.89,ENE,68,5.8,5.8,41,0.00,OVC,,0.00,0.0,WeatherDisplay:10.37,2013-05-22 22:44:00,
2013-05-22 17:49:00,85.6,59.2,29.89,ESE,112,6.9,6.9,41,0.00,OVC,,0.00,0.0,WeatherDisplay:10.37,2013-05-22 22:49:00,
2013-05-22 17:54:00,85.5,59.1,29.89,ENE,68,4.6,4.6,41,0.00,OVC,,0.00,0.0,WeatherDisplay:10.37,2013-05-22 22:54:00,
2013-05-22 18:00:00,85.8,59.4,29.89,SE,135,4.6,4.6,41,0.00,OVC,,0.00,0.0,WeatherDisplay:10.37,2013-05-22 23:00:00,
2013-05-22 18:05:00,85.5,59.1,29.89,ESE,112,6.9,6.9,41,0.00,OVC,,0.00,0.0,WeatherDisplay:10.37,2013-05-22 23:05:00,
2013-05-22 18:10:00,85.6,59.9,29.89,East,90,6.9,6.9,42,0.00,OVC,,0.00,0.0,WeatherDisplay:10.37,2013-05-22 23:10:00,
2013-05-22 18:15:00,85.8,60.1,29.89,East,90,8.1,8.1,42,0.00,OVC,,0.00,0.0,WeatherDisplay:10.37,2013-05-22 23:15:00,
2013-05-22 18:20:00,85.6,59.9,29.89,ESE,112,4.6,4.6,42,0.00,OVC,,0.00,0.0,WeatherDisplay:10.37,2013-05-22 23:20:00,
2013-05-22 18:26:00,85.8,60.1,29.89,SE,135,4.9,4.9,42,0.00,OVC,,0.00,0.0,WeatherDisplay:10.37,2013-05-22 23:26:00,
2013-05-22 18:31:00,85.6,60.6,29.89,East,90,5.8,5.8,43,0.00,OVC,,0.00,0.0,WeatherDisplay:10.37,2013-05-22 23:31:00,
2013-05-22 18:36:00,85.8,60.7,29.89,ESE,112,2.6,3.5,43,0.00,OVC,,0.00,0.0,WeatherDisplay:10.37,2013-05-22 23:36:00,
2013-05-22 18:41:00,86.2,61.1,29.89,ESE,112,5.8,5.8,43,0.00,OVC,,0.00,0.0,WeatherDisplay:10.37,2013-05-22 23:41:00,
2013-05-22 18:46:00,86.2,61.1,29.89,East,90,6.9,6.9,43,0.00,OVC,,0.00,0.0,WeatherDisplay:10.37,2013-05-22 23:46:00,
2013-05-22 18:52:00,86.0,60.2,29.88,ESE,112,5.8,5.8,42,0.00,OVC,,0.00,0.0,WeatherDisplay:10.37,2013-05-22 23:52:00,
2013-05-22 18:57:00,86.0,60.2,29.88,ESE,112,5.8,5.8,42,0.00,OVC,,0.00,0.0,WeatherDisplay:10.37,2013-05-22 23:57:00,
2013-05-22 19:02:00,86.2,60.4,29.88,ESE,112,6.9,6.9,42,0.00,OVC,,0.00,0.0,WeatherDisplay:10.37,2013-05-23 00:02:00,
2013-05-22 19:07:00,86.2,61.1,29.88,ESE,112,4.6,4.6,43,0.00,OVC,,0.00,0.0,WeatherDisplay:10.37,2013-05-23 00:07:00,
2013-05-22 19:12:00,86.5,62.0,29.89,ESE,112,7.5,7.5,44,0.00,OVC,,0.00,0.0,WeatherDisplay:10.37,2013-05-23 00:12:00,
2013-05-22 19:17:00,86.7,62.2,29.89,East,90,6.9,6.9,44,0.00,OVC,,0.00,0.0,WeatherDisplay:10.37,2013-05-23 00:17:00,
2013-05-22 19:22:00,86.9,63.0,29.89,SSW,202,5.8,5.8,45,0.00,OVC,,0.00,0.0,WeatherDisplay:10.37,2013-05-23 00:22:00,
2013-05-22 19:28:00,87.3,63.3,29.89,ESE,112,4.6,4.6,45,0.00,OVC,,0.00,0.0,WeatherDisplay:10.37,2013-05-23 00:28:00,
2013-05-22 19:33:00,86.9,63.0,29.88,ESE,112,6.9,6.9,45,0.00,OVC,,0.00,0.0,WeatherDisplay:10.37,2013-05-23 00:33:00,
2013-05-22 19:38:00,86.7,62.2,29.88,ESE,112,6.9,6.9,44,0.00,OVC,,0.00,0.0,WeatherDisplay:10.37,2013-05-23 00:38:00,
2013-05-22 19:43:00,86.4,62.5,29.88,ESE,112,8.1,8.1,45,0.00,OVC,,0.00,0.0,WeatherDisplay:10.37,2013-05-23 00:43:00,
2013-05-22 19:48:00,86.0,62.2,29.88,ESE,112,4.6,5.1,45,0.00,OVC,,0.00,0.0,WeatherDisplay:10.37,2013-05-23 00:48:00,
2013-05-22 19:53:00,85.1,62.0,29.88,ENE,68,6.9,6.9,46,0.00,OVC,,0.00,10.0,WeatherDisplay:10.37,2013-05-23 00:53:00,
2013-05-22 19:58:00,84.7,61.7,29.88,ESE,112,6.9,6.9,46,0.00,OVC,,0.00,20.0,WeatherDisplay:10.37,2013-05-23 00:58:00,
2013-05-22 20:04:00,84.2,61.8,29.88,SE,135,6.9,6.9,47,0.00,OVC,,0.00,40.0,WeatherDisplay:10.37,2013-05-23 01:04:00,
2013-05-22 20:09:00,84.0,62.2,29.88,ESE,112,4.6,4.6,48,0.00,OVC,,0.00,40.0,WeatherDisplay:10.37,2013-05-23 01:09:00,
2013-05-22 20:14:00,83.5,62.3,29.88,East,90,5.8,5.8,49,0.00,OVC,,0.00,50.0,WeatherDisplay:10.37,2013-05-23 01:14:00,
2013-05-22 20:19:00,83.3,62.7,29.88,ESE,112,5.8,5.8,50,0.00,OVC,,0.00,50.0,WeatherDisplay:10.37,2013-05-23 01:19:00,
2013-05-22 20:24:00,82.8,62.2,29.88,ESE,112,8.1,8.1,50,0.00,OVC,,0.00,70.0,WeatherDisplay:10.37,2013-05-23 01:24:00,
2013-05-22 20:30:00,82.6,62.6,29.89,East,90,4.6,4.6,51,0.00,OVC,,0.00,70.0,WeatherDisplay:10.37,2013-05-23 01:30:00,
2013-05-22 20:35:00,82.4,62.5,29.89,ESE,112,3.6,3.6,51,0.00,OVC,,0.00,60.0,WeatherDisplay:10.37,2013-05-23 01:35:00,
2013-05-22 20:40:00,82.2,62.8,29.89,SE,135,5.8,5.8,52,0.00,OVC,,0.00,80.0,WeatherDisplay:10.37,2013-05-23 01:40:00,
2013-05-22 20:45:00,82.0,62.7,29.89,ESE,112,5.8,5.8,52,0.00,OVC,,0.00,80.0,WeatherDisplay:10.37,2013-05-23 01:45:00,
2013-05-22 20:51:00,81.7,62.9,29.91,ESE,112,5.8,5.8,53,0.00,OVC,,0.00,90.0,WeatherDisplay:10.37,2013-05-23 01:51:00,
2013-05-22 20:56:00,81.5,63.3,29.91,ESE,112,5.8,5.8,54,0.00,CLR,,0.00,100.0,WeatherDisplay:10.37,2013-05-23 01:56:00,
2013-05-22 21:01:00,81.0,63.3,29.91,ESE,112,5.8,5.8,55,0.00,CLR,,0.00,100.0,WeatherDisplay:10.37,2013-05-23 02:01:00,
2013-05-22 21:06:00,80.8,63.6,29.91,SE,135,6.9,6.9,56,0.00,CLR,,0.00,100.0,WeatherDisplay:10.37,2013-05-23 02:06:00,
2013-05-22 21:11:00,80.6,63.5,29.91,ESE,112,5.8,5.8,56,0.00,CLR,,0.00,100.0,WeatherDisplay:10.37,2013-05-23 02:11:00,
2013-05-22 21:16:00,80.4,63.8,29.91,East,90,4.6,4.6,57,0.00,CLR,,0.00,100.0,WeatherDisplay:10.37,2013-05-23 02:16:00,
2013-05-22 21:21:00,80.1,63.5,29.91,SE,135,4.6,4.6,57,0.00,CLR,,0.00,120.0,WeatherDisplay:10.37,2013-05-23 02:21:00,
2013-05-22 21:27:00,80.1,63.5,29.91,ESE,112,4.6,4.6,57,0.00,CLR,,0.00,120.0,WeatherDisplay:10.37,2013-05-23 02:27:00,
2013-05-22 21:32:00,79.7,63.6,29.91,ESE,112,7.9,7.9,58,0.00,CLR,,0.00,120.0,WeatherDisplay:10.37,2013-05-23 02:32:00,
2013-05-22 21:37:00,79.5,63.4,29.91,ESE,112,6.9,6.9,58,0.00,CLR,,0.00,120.0,WeatherDisplay:10.37,2013-05-23 02:37:00,
2013-05-22 21:42:00,79.3,63.3,29.91,ESE,112,5.8,5.8,58,0.00,CLR,,0.00,120.0,WeatherDisplay:10.37,2013-05-23 02:42:00,
2013-05-22 21:47:00,79.0,63.4,29.91,ESE,112,4.6,4.6,59,0.00,CLR,,0.00,120.0,WeatherDisplay:10.37,2013-05-23 02:47:00,
2013-05-22 21:52:00,78.8,63.3,29.91,East,90,5.8,5.8,59,0.00,CLR,,0.00,120.0,WeatherDisplay:10.37,2013-05-23 02:52:00,
2013-05-22 21:57:00,78.6,63.6,29.91,NNW,338,4.6,4.6,60,0.00,CLR,,0.00,120.0,WeatherDisplay:10.37,2013-05-23 02:57:00,
2013-05-22 22:02:00,78.4,63.9,29.91,ESE,112,3.5,3.5,61,0.00,CLR,,0.00,120.0,WeatherDisplay:10.37,2013-05-23 03:02:00,
2013-05-22 22:07:00,78.1,63.5,29.91,SE,135,4.6,4.6,61,0.00,CLR,,0.00,120.0,WeatherDisplay:10.37,2013-05-23 03:07:00,
2013-05-22 22:12:00,78.3,64.2,29.92,SE,135,4.6,4.6,62,0.00,CLR,,0.00,120.0,WeatherDisplay:10.37,2013-05-23 03:12:00,
2013-05-22 22:18:00,77.9,63.8,29.92,ESE,112,5.1,5.1,62,0.00,CLR,,0.00,0.0,WeatherDisplay:10.37,2013-05-23 03:18:00,
2013-05-22 22:23:00,77.9,64.3,29.92,East,90,6.9,6.9,63,0.00,CLR,,0.00,120.0,WeatherDisplay:10.37,2013-05-23 03:23:00,
2013-05-22 22:28:00,77.9,64.3,29.92,ESE,112,6.9,6.9,63,0.00,CLR,,0.00,120.0,WeatherDisplay:10.37,2013-05-23 03:28:00,
2013-05-22 22:33:00,77.5,63.9,29.92,East,90,5.8,5.8,63,0.00,CLR,,0.00,120.0,WeatherDisplay:10.37,2013-05-23 03:33:00,
2013-05-22 22:38:00,77.4,63.8,29.92,East,90,6.9,6.9,63,0.00,CLR,,0.00,120.0,WeatherDisplay:10.37,2013-05-23 03:38:00,
2013-05-22 22:44:00,77.2,63.6,29.92,SE,135,3.5,3.5,63,0.00,CLR,,0.00,120.0,WeatherDisplay:10.37,2013-05-23 03:44:00,
2013-05-22 22:49:00,77.2,64.1,29.92,SE,135,2.3,3.0,64,0.00,CLR,,0.00,120.0,WeatherDisplay:10.37,2013-05-23 03:49:00,
2013-05-22 22:54:00,77.2,64.1,29.93,East,90,3.7,3.7,64,0.00,CLR,,0.00,120.0,WeatherDisplay:10.37,2013-05-23 03:54:00,
2013-05-22 22:59:00,77.0,63.9,29.93,ESE,112,4.6,4.6,64,0.00,CLR,,0.00,120.0,WeatherDisplay:10.37,2013-05-23 03:59:00,
2013-05-22 23:01:00,76.8,63.7,29.93,SSE,158,4.6,4.6,64,0.00,CLR,,0.00,120.0,WeatherDisplay:10.37,2013-05-23 04:01:00,
2013-05-22 23:02:00,76.8,64.2,29.93,ESE,112,3.5,3.5,65,0.00,CLR,,0.00,120.0,WeatherDisplay:10.37,2013-05-23 04:02:00,
2013-05-22 23:05:00,76.8,64.2,29.93,East,90,3.5,3.5,65,0.00,CLR,,0.00,120.0,WeatherDisplay:10.37,2013-05-23 04:05:00,
2013-05-22 23:08:00,76.6,64.0,29.93,ESE,112,3.8,3.8,65,0.00,CLR,,0.00,120.0,WeatherDisplay:10.37,2013-05-23 04:08:00,
2013-05-22 23:13:00,76.5,63.8,29.93,East,90,3.5,3.5,65,0.00,CLR,,0.00,120.0,WeatherDisplay:10.37,2013-05-23 04:13:00,
2013-05-22 23:18:00,76.5,64.3,29.93,ESE,112,3.5,3.5,66,0.00,CLR,,0.00,120.0,WeatherDisplay:10.37,2013-05-23 04:18:00,
2013-05-22 23:23:00,76.3,64.1,29.93,SE,135,2.3,2.3,66,0.00,CLR,,0.00,120.0,WeatherDisplay:10.37,2013-05-23 04:23:00,
2013-05-22 23:29:00,76.3,64.1,29.93,SE,135,2.3,2.3,66,0.00,CLR,,0.00,120.0,WeatherDisplay:10.37,2013-05-23 04:29:00,
2013-05-22 23:34:00,76.1,64.3,29.95,East,90,3.5,3.5,67,0.00,CLR,,0.00,120.0,WeatherDisplay:10.37,2013-05-23 04:34:00,
2013-05-22 23:39:00,76.1,64.3,29.95,ESE,112,3.5,3.5,67,0.00,CLR,,0.00,120.0,WeatherDisplay:10.37,2013-05-23 04:39:00,
2013-05-22 23:44:00,75.7,64.4,29.95,ENE,68,3.5,3.5,68,0.00,CLR,,0.00,120.0,WeatherDisplay:10.37,2013-05-23 04:44:00,
2013-05-22 23:49:00,75.6,64.3,29.95,East,90,3.5,3.5,68,0.00,CLR,,0.00,120.0,WeatherDisplay:10.37,2013-05-23 04:49:00,
2013-05-22 23:54:00,75.7,64.4,29.95,ESE,112,4.6,4.6,68,0.00,CLR,,0.00,120.0,WeatherDisplay:10.37,2013-05-23 04:54:00,
2013-05-22 23:59:00,75.4,64.1,29.95,SE,135,3.5,3.5,68,0.00,CLR,,0.00,120.0,WeatherDisplay:10.37,2013-05-23 04:59:00,